Latest Coastal Weather Observations for Kingscote

IDS60701

Issued at 3:41 pm CDT Friday 27 March 2015 (issued every 10 minutes, with the page automatically refreshed every 10 minutes)

About coastal observations | Map of coastal stations | Coastal observations for SA | Marine services | Other Formats
Station Details ID: 022841 Name: KINGSCOTE AERO Lat: -35.71 Lon: 137.52 Height: 6.23 m
Data from the previous 72 hours. | See also: Recent months at Kingscote
Date/Time
CDT
Temp

°C
Wind Pressure Rain
since 9am
mm
Weather Cloud Vis
km
Sea
Height
m
Swell
Dir
 
Speed
knots
Gust
knots
hPa Trend Height
m
Period
s
Dir
27/03:30pm 17.0 SSE 6 10 1027.1 - 0.8 - Partly cloudy 10 - - - -
27/03:00pm 17.3 SE 10 18 1027.2 - 0.8 - Cloudy 10 - - - -
27/02:30pm 17.7 SE 5 9 1027.5 - 0.8 - Partly cloudy 10 - - - -
27/02:00pm 17.5 SE 6 10 1028.0 - 0.8 - Partly cloudy 10 - - - -
27/01:30pm 14.8 SE 9 13 1028.4 - 0.8 - Partly cloudy 10 - - - -
27/01:00pm 15.5 SE 7 10 1028.7 - 0.6 - Partly cloudy 10 - - - -
27/12:30pm 17.7 S 6 9 1029.0 - 0.4 - Partly cloudy 10 - - - -
27/12:00pm 15.4 SSW 5 6 1029.5 - 0.4 - Cloudy 10 - - - -
27/11:54am 14.4 SSW 6 9 1029.5 - 0.4 - Partly cloudy 10 - - - -
27/11:42am 13.8 SSW 11 14 1029.8 - 0.4 - Partly cloudy 5 - - - -
27/11:30am 14.6 SSW 10 15 1029.8 - 0.4 - Partly cloudy 10 - - - -
27/11:00am 14.2 SSW 5 8 1029.9 - 0.4 - Partly cloudy 10 - - - -
27/10:30am 15.5 SSW 8 11 1029.9 - 0.0 - Partly cloudy 10 - - - -
27/10:00am 14.9 SW 7 10 1029.9 - 0.0 - Partly cloudy 10 - - - -
27/09:30am 14.6 SW 7 9 1029.6 - 0.0 - - 10 - - - -
27/09:00am 13.1 WSW 6 8 1029.6 - 0.2 - Mostly clear 10 - - - -
27/08:30am 11.9 W 6 8 1029.6 - 0.2 - Partly cloudy 10 - - - -
27/08:00am 10.9 WNW 6 7 1029.2 - 0.2 - Partly cloudy 10 - - - -
27/07:34am 10.9 W 7 9 1029.0 - 0.2 - Partly cloudy 10 - - - -
27/07:30am 10.9 W 8 9 1029.0 - 0.2 - Partly cloudy 10 - - - -
27/07:12am 10.8 WSW 8 10 1029.0 - 0.0 - Partly cloudy 5 - - - -
27/07:00am 10.3 SW 4 5 1028.8 - 0.0 - Partly cloudy 10 - - - -
27/06:30am 10.5 W 5 5 1028.5 - 0.0 - Partly cloudy 10 - - - -
27/06:00am 11.4 WNW 6 7 1028.3 - 0.0 - Cloudy 10 - - - -
27/05:30am 11.7 WSW 8 10 1028.3 - 0.0 - Partly cloudy 7 - - - -
27/05:00am 11.4 WSW 6 8 1028.1 - 0.0 - Cloudy 10 - - - -
27/04:30am 11.6 W 7 9 1028.0 - 0.0 - Cloudy 10 - - - -
27/04:00am 12.0 W 6 8 1028.0 - 0.0 - Partly cloudy 10 - - - -
27/03:30am 12.1 W 7 9 1028.1 - 0.0 - Partly cloudy 10 - - - -
27/03:00am 12.0 W 6 8 1028.1 - 0.0 - Cloudy 10 - - - -
27/02:30am 11.9 NW 6 6 1028.1 - 0.0 - Partly cloudy 10 - - - -
27/02:00am 12.0 SE 1 4 1028.3 - 0.0 - Partly cloudy 10 - - - -
27/01:30am 11.9 W 5 7 1028.4 - 0.0 - Partly cloudy 10 - - - -
27/01:00am 11.9 W 5 7 1028.5 - 0.0 - Cloudy 10 - - - -
27/12:30am 11.7 NW 4 5 1028.4 - 0.0 - Cloudy 10 - - - -
27/12:00am 12.1 W 4 5 1028.5 - 0.0 - Cloudy 10 - - - -
 
Date/Time
CDT
Temp

°C
Wind Pressure Rain
since 9am
mm
Weather Cloud Vis
km
Sea
Height
m
Swell
Dir
 
Speed
knots
Gust
knots
hPa Trend Height
m
Period
s
Dir
26/11:30pm 12.7 W 5 7 1028.6 - 0.0 - Partly cloudy 10 - - - -
26/11:00pm 12.9 WSW 6 8 1028.8 - 0.0 - Partly cloudy 10 - - - -
26/10:30pm 13.1 W 6 8 1028.8 - 0.0 - Partly cloudy 10 - - - -
26/10:00pm 13.3 W 4 6 1028.9 - 0.0 - Partly cloudy 10 - - - -
26/09:30pm 13.5 WSW 6 7 1028.7 - 0.0 - Partly cloudy 10 - - - -
26/09:00pm 13.7 SSW 7 9 1028.7 - 0.0 - Cloudy 10 - - - -
26/08:30pm 14.0 SW 6 9 1028.5 - 0.0 - Cloudy 10 - - - -
26/08:00pm 14.2 SW 10 14 1028.3 - 0.0 - Cloudy 10 - - - -
26/07:30pm 14.2 WSW 10 13 1028.0 - 0.0 - Cloudy 10 - - - -
26/07:00pm 14.3 SW 11 19 1028.0 - 0.0 - Partly cloudy 10 - - - -
26/06:30pm 14.9 SW 15 21 1027.7 - 0.0 - Cloudy 10 - - - -
26/06:00pm 15.2 SW 13 19 1027.3 - 0.0 - Cloudy 10 - - - -
26/05:30pm 15.3 SSW 15 21 1027.1 - 0.0 - Partly cloudy 10 - - - -
26/05:00pm 15.5 SW 14 19 1026.9 - 0.0 - Cloudy 10 - - - -
26/04:30pm 16.5 SW 15 19 1026.7 - 0.0 - Partly cloudy 10 - - - -
26/04:00pm 16.1 SW 16 23 1026.8 - 0.0 - Partly cloudy 10 - - - -
26/03:30pm 16.7 SW 15 20 1026.6 - 0.0 - Cloudy 10 - - - -
26/03:04pm 17.0 SW 15 25 1026.4 - 0.0 - Partly cloudy 10 - - - -
26/03:00pm 17.2 SW 15 21 1026.6 - 0.0 - Cloudy 10 - - - -
26/02:30pm 17.8 SW 18 25 1026.6 - 0.0 - Partly cloudy 10 - - - -
26/02:02pm 18.7 SSW 19 24 1026.6 - 0.0 - Partly cloudy 10 - - - -
26/02:00pm 18.4 SSW 18 24 1026.6 - 0.0 - Partly cloudy 10 - - - -
26/01:30pm 16.6 SSW 19 25 1026.8 - 0.0 - Partly cloudy 10 - - - -
26/01:00pm 16.4 SSW 20 27 1026.8 - 0.0 - Partly cloudy 10 - - - -
26/12:52pm 16.8 SW 17 27 1026.8 - 0.0 - Partly cloudy 10 - - - -
26/12:30pm 15.8 SW 19 23 1026.9 - 0.0 - Partly cloudy 10 - - - -
26/12:18pm 16.5 SW 18 28 1026.6 - 0.0 - Partly cloudy 10 - - - -
26/12:00pm 16.5 SW 20 25 1026.7 - 0.0 - Partly cloudy 10 - - - -
26/11:43am 16.2 SSW 15 27 1026.7 - 0.0 - Partly cloudy 10 - - - -
26/11:30am 14.8 SW 15 22 1027.0 - 0.0 - Partly cloudy 10 - - - -
26/11:00am 14.1 SSW 18 28 1026.8 - 0.0 - Partly cloudy 10 - - - -
26/10:54am 15.2 SW 17 28 1026.5 - 0.0 - Partly cloudy 10 - - - -
26/10:30am 15.4 SSW 15 21 1026.5 - 0.0 - Partly cloudy 10 - - - -
26/10:00am 13.6 SW 16 21 1026.4 - 0.0 - Partly cloudy 10 - - - -
26/09:30am 13.8 W 11 14 1025.8 - 0.0 - - 10 - - - -
26/09:00am 11.7 W 8 10 1025.4 - 1.4 - Partly cloudy 10 - - - -
26/08:30am 10.0 WSW 5 7 1025.1 - 1.4 - - 10 - - - -
26/08:00am 8.5 WNW 7 9 1024.7 - 1.4 - - 10 - - - -
26/07:30am 7.5 WNW 8 9 1024.3 - 1.4 - - 10 - - - -
26/07:00am 8.1 WNW 9 11 1023.9 - 1.4 - Partly cloudy 10 - - - -
26/06:30am 7.6 W 7 10 1023.5 - 1.4 - - 10 - - - -
26/06:00am 8.4 WSW 9 13 1023.2 - 1.4 - Partly cloudy 10 - - - -
26/05:30am 8.1 W 9 11 1022.9 - 1.4 - - 10 - - - -
26/05:00am 7.4 W 7 10 1022.8 - 1.4 - - 10 - - - -
26/04:30am 8.0 WSW 8 11 1023.0 - 1.4 - Partly cloudy 10 - - - -
26/04:00am 7.1 WSW 8 9 1022.7 - 1.4 - - 10 - - - -
26/03:30am 6.4 WSW 7 7 1022.7 - 1.4 - - 10 - - - -
26/03:00am 6.6 WSW 5 6 1022.7 - 1.4 - - 10 - - - -
26/02:30am 7.3 WNW 7 8 1022.5 - 1.4 - - 10 - - - -
26/02:00am 7.3 WNW 7 10 1022.5 - 1.4 - Partly cloudy 10 - - - -
26/01:30am 7.4 WNW 7 8 1022.4 - 1.4 - Partly cloudy 10 - - - -
26/01:00am 6.7 WNW 6 9 1022.6 - 1.4 - Partly cloudy 10 - - - -
26/12:30am 8.0 NW 4 5 1022.3 - 1.4 - Partly cloudy 10 - - - -
26/12:00am 8.3 WNW 5 7 1022.4 - 1.2 - Mostly cloudy 10 - - - -
 
Date/Time
CDT
Temp

°C
Wind Pressure Rain
since 9am
mm
Weather Cloud Vis
km
Sea
Height
m
Swell
Dir
 
Speed
knots
Gust
knots
hPa Trend Height
m
Period
s
Dir
25/11:30pm 8.4 WNW 8 10 1022.0 - 1.2 - Partly cloudy 10 - - - -
25/11:00pm 8.4 NW 7 8 1022.0 - 1.2 - - 10 - - - -
25/10:30pm 9.1 WNW 6 8 1021.7 - 1.2 - Partly cloudy 10 - - - -
25/10:00pm 10.7 WSW 11 16 1021.6 - 1.2 - Partly cloudy 10 - - - -
25/09:30pm 9.6 WNW 7 9 1021.0 - 1.2 - - 10 - - - -
25/09:00pm 10.6 W 7 10 1020.8 - 1.2 - Mostly clear 10 - - - -
25/08:30pm 11.0 WSW 9 12 1020.3 - 1.2 - Partly cloudy 10 - - - -
25/08:00pm 11.8 WSW 10 14 1019.8 - 1.2 - Partly cloudy 10 - - - -
25/07:30pm 13.0 SW 12 16 1019.3 - 1.2 - Partly cloudy 10 - - - -
25/07:00pm 13.6 SW 17 25 1018.8 - 1.2 - Partly cloudy 10 - - - -
25/06:30pm 14.4 SW 19 25 1018.3 - 1.2 - Partly cloudy 10 - - - -
25/06:11pm 14.6 WSW 19 29 1017.9 - 1.2 - Partly cloudy 10 - - - -
25/06:00pm 14.3 WSW 12 16 1017.9 - 1.2 - Cloudy 10 - - - -
25/05:30pm 13.1 WSW 11 16 1017.5 - 1.2 - Partly cloudy 10 - - - -
25/05:00pm 12.6 SW 20 28 1017.6 - 1.2 - Partly cloudy 10 - - - -
25/04:30pm 13.1 SW 19 29 1017.1 - 1.0 - Partly cloudy 10 - - - -
25/04:00pm 14.1 SW 17 23 1016.5 - 0.6 - Partly cloudy 10 - - - -
25/03:56pm 14.3 SW 17 23 1016.5 - 0.6 - Partly cloudy 10 - - - -
25/03:31pm 14.7 W 19 25 1016.1 - 0.4 - Partly cloudy 5 - - - -
25/03:30pm 15.2 W 18 25 1016.1 - 0.4 - Partly cloudy 6 - - - -
25/03:28pm 15.6 W 18 25 1016.0 - 0.0 - Partly cloudy 7 - - - -
25/03:02pm 16.9 WNW 22 34 1015.6 - 0.0 - Partly cloudy 10 - - - -
25/03:00pm 17.4 WNW 21 28 1015.5 - 0.0 - Cloudy 10 - - - -
25/02:30pm 19.4 NW 23 33 1015.4 - 0.0 - Partly cloudy 10 - - - -
25/02:06pm 19.2 NW 21 31 1015.8 - 0.0 - Partly cloudy 10 - - - -
25/02:00pm 18.8 NW 21 29 1015.8 - 0.0 - Partly cloudy 10 - - - -
25/01:34pm 18.4 NW 21 31 1016.5 - 0.0 - Partly cloudy 10 - - - -
25/01:30pm 18.8 NW 21 30 1016.5 - 0.0 - Partly cloudy 10 - - - -
25/01:02pm 19.8 NW 21 31 1016.8 - 0.0 - Partly cloudy 10 - - - -
25/01:00pm 19.3 NW 22 31 1016.8 - 0.0 - Partly cloudy 10 - - - -
25/12:38pm 18.8 NW 21 31 1017.0 - 0.0 - Partly cloudy 10 - - - -
25/12:30pm 18.8 NW 20 29 1017.2 - 0.0 - Partly cloudy 10 - - - -
25/12:00pm 20.3 NW 19 29 1017.4 - 0.0 - Mostly cloudy 10 - - - -
25/11:57am 19.5 WNW 19 29 1017.4 - 0.0 - Partly cloudy 10 - - - -
25/11:30am 19.7 NW 17 24 1017.9 - 0.0 - Partly cloudy 10 - - - -
25/11:00am 18.2 NW 15 21 1018.3 - 0.0 - Cloudy 10 - - - -
25/10:30am 16.1 NW 13 19 1018.3 - 0.0 - Partly cloudy 10 - - - -
25/10:06am 16.2 WNW 15 28 1018.8 - 0.0 - Partly cloudy 10 - - - -
25/10:00am 16.4 WNW 12 17 1018.8 - 0.0 - Partly cloudy 10 - - - -
25/09:30am 16.4 NW 11 17 1018.8 - 0.0 - Partly cloudy 10 - - - -
25/09:00am 14.4 CALM 0 0 1018.8 - 0.0 - Cloudy 10 - - - -
25/08:30am 11.9 CALM 0 0 1019.0 - 0.0 - Cloudy 10 - - - -
25/08:00am 11.2 CALM 0 0 1019.1 - 0.0 - Partly cloudy 10 - - - -
25/07:30am 11.1 CALM 0 0 1019.1 - 0.0 - Cloudy 10 - - - -
25/07:00am 10.4 CALM 0 0 1019.0 - 0.0 - Cloudy 10 - - - -
25/06:30am 10.5 CALM 0 0 1018.8 - 0.0 - Cloudy 10 - - - -
25/06:00am 10.0 CALM 0 0 1018.8 - 0.0 - Mostly cloudy 10 - - - -
25/05:30am 9.9 SW 3 4 1019.1 - 0.0 - - 10 - - - -
25/05:00am 11.5 CALM 0 0 1019.2 - 0.0 - Partly cloudy 10 - - - -
25/04:30am 12.8 CALM 0 0 1019.5 - 0.0 - Cloudy 10 - - - -
25/04:00am 12.5 CALM 0 0 1020.0 - 0.0 - Cloudy 10 - - - -
25/03:30am 12.4 CALM 0 0 1020.3 - 0.0 - Cloudy 10 - - - -
25/03:00am 12.3 W 5 6 1020.7 - 0.0 - Cloudy 10 - - - -
25/02:30am 12.8 NW 3 4 1021.0 - 0.0 - Cloudy 10 - - - -
25/02:00am 12.6 WNW 4 4 1021.1 - 0.0 - Cloudy 10 - - - -
25/01:30am 12.8 WNW 5 6 1021.2 - 0.0 - Cloudy 10 - - - -
25/01:00am 11.7 CALM 0 0 1021.4 - 0.0 - Cloudy 10 - - - -
25/12:30am 11.9 CALM 0 0 1021.8 - 0.0 - Cloudy 10 - - - -
25/12:00am 11.9 CALM 0 0 1021.9 - 0.0 - Cloudy 10 - - - -
 
Date/Time
CDT
Temp

°C
Wind Pressure Rain
since 9am
mm
Weather Cloud Vis
km
Sea
Height
m
Swell
Dir
 
Speed
knots
Gust
knots
hPa Trend Height
m
Period
s
Dir
24/11:30pm 12.5 CALM 0 0 1021.9 - 0.0 - Cloudy 10 - - - -
24/11:00pm 13.2 CALM 0 0 1022.7 - 0.0 - Cloudy 10 - - - -
24/10:30pm 13.6 CALM 0 0 1022.7 - 0.0 - Cloudy 10 - - - -
24/10:00pm 13.9 S 3 3 1022.9 - 0.0 - Cloudy 10 - - - -
24/09:30pm 14.1 S 4 4 1023.0 - 0.0 - Cloudy 10 - - - -
24/09:00pm 14.2 SSW 4 4 1022.7 - 0.0 - Cloudy 10 - - - -
24/08:30pm 14.6 SSE 5 6 1022.7 - 0.0 - Cloudy 10 - - - -
24/08:00pm 14.9 SSE 4 6 1022.6 - 0.0 - Cloudy 10 - - - -
24/07:30pm 15.1 SSE 7 11 1022.2 - 0.0 - Cloudy 10 - - - -
24/07:00pm 15.6 SSE 9 13 1021.9 - 0.0 - Cloudy 10 - - - -
24/06:30pm 16.3 SSE 9 12 1022.0 - 0.0 - Partly cloudy 10 - - - -
24/06:00pm 16.9 SE 11 15 1021.7 - 0.0 - Cloudy 10 - - - -
24/05:30pm 16.6 SE 11 15 1021.8 - 0.0 - Cloudy 10 - - - -
24/05:00pm 17.4 SE 11 16 1021.7 - 0.0 - Cloudy 10 - - - -
24/04:30pm 17.9 SSE 10 14 1021.8 - 0.0 - Partly cloudy 10 - - - -
24/04:00pm 19.0 S 11 15 1021.5 - 0.0 - Cloudy 10 - - - -

Other Formats:

Comma delimited format used in spreadsheet applications
http://www.bom.gov.au/fwo/IDS60701/IDS60701.95807.axf

JavaScript Object Notation format (JSON) in row-major order
http://www.bom.gov.au/fwo/IDS60701/IDS60701.95807.json